sensor_id;sensor_type;location;lat;lon;timestamp;P1;durP1;ratioP1;P2;durP2;ratioP2
40997;SDS011;26740;45.944;12.480;2024-02-26T00:01:41;8.23;;;5.13;;
40997;SDS011;26740;45.944;12.480;2024-02-26T00:04:09;4.35;;;3.95;;
40997;SDS011;26740;45.944;12.480;2024-02-26T00:06:35;5.38;;;4.18;;
40997;SDS011;26740;45.944;12.480;2024-02-26T00:09:00;5.18;;;4.25;;
40997;SDS011;26740;45.944;12.480;2024-02-26T00:11:27;5.65;;;3.53;;
40997;SDS011;26740;45.944;12.480;2024-02-26T00:13:53;4.32;;;3.47;;
40997;SDS011;26740;45.944;12.480;2024-02-26T00:16:19;5.07;;;3.80;;
40997;SDS011;26740;45.944;12.480;2024-02-26T00:18:44;3.40;;;3.08;;
40997;SDS011;26740;45.944;12.480;2024-02-26T00:21:10;5.90;;;4.00;;
40997;SDS011;26740;45.944;12.480;2024-02-26T00:23:35;4.57;;;3.92;;
40997;SDS011;26740;45.944;12.480;2024-02-26T00:26:01;8.23;;;3.55;;
40997;SDS011;26740;45.944;12.480;2024-02-26T00:28:26;11.18;;;3.17;;
40997;SDS011;26740;45.944;12.480;2024-02-26T00:30:54;3.75;;;2.85;;
40997;SDS011;26740;45.944;12.480;2024-02-26T00:33:21;5.55;;;3.42;;
40997;SDS011;26740;45.944;12.480;2024-02-26T00:35:47;4.65;;;2.92;;
40997;SDS011;26740;45.944;12.480;2024-02-26T00:38:13;4.00;;;2.80;;
40997;SDS011;26740;45.944;12.480;2024-02-26T00:40:39;2.67;;;2.47;;
40997;SDS011;26740;45.944;12.480;2024-02-26T00:43:06;9.02;;;3.28;;
40997;SDS011;26740;45.944;12.480;2024-02-26T00:45:32;4.18;;;3.05;;
40997;SDS011;26740;45.944;12.480;2024-02-26T00:47:57;3.20;;;2.90;;
40997;SDS011;26740;45.944;12.480;2024-02-26T00:50:23;2.60;;;2.33;;
40997;SDS011;26740;45.944;12.480;2024-02-26T00:52:49;4.50;;;2.85;;
40997;SDS011;26740;45.944;12.480;2024-02-26T00:55:15;5.43;;;3.35;;
40997;SDS011;26740;45.944;12.480;2024-02-26T00:57:41;3.50;;;2.88;;
40997;SDS011;26740;45.944;12.480;2024-02-26T01:00:07;3.15;;;2.67;;
40997;SDS011;26740;45.944;12.480;2024-02-26T01:02:36;4.07;;;2.70;;
40997;SDS011;26740;45.944;12.480;2024-02-26T01:05:02;4.10;;;3.45;;
40997;SDS011;26740;45.944;12.480;2024-02-26T01:07:28;3.13;;;2.83;;
40997;SDS011;26740;45.944;12.480;2024-02-26T01:09:53;2.92;;;2.67;;
40997;SDS011;26740;45.944;12.480;2024-02-26T01:12:19;5.00;;;3.60;;
40997;SDS011;26740;45.944;12.480;2024-02-26T01:14:44;4.57;;;3.75;;
40997;SDS011;26740;45.944;12.480;2024-02-26T01:17:10;4.30;;;3.25;;
40997;SDS011;26740;45.944;12.480;2024-02-26T01:19:35;3.88;;;2.90;;
40997;SDS011;26740;45.944;12.480;2024-02-26T01:22:01;4.22;;;2.70;;
40997;SDS011;26740;45.944;12.480;2024-02-26T01:24:26;4.13;;;2.75;;
40997;SDS011;26740;45.944;12.480;2024-02-26T01:26:52;3.90;;;3.45;;
40997;SDS011;26740;45.944;12.480;2024-02-26T01:29:18;4.18;;;2.95;;
40997;SDS011;26740;45.944;12.480;2024-02-26T01:31:44;3.50;;;2.30;;
40997;SDS011;26740;45.944;12.480;2024-02-26T01:34:09;2.80;;;2.55;;
40997;SDS011;26740;45.944;12.480;2024-02-26T01:36:35;2.42;;;2.22;;
40997;SDS011;26740;45.944;12.480;2024-02-26T01:39:01;3.55;;;2.35;;
40997;SDS011;26740;45.944;12.480;2024-02-26T01:41:28;5.35;;;2.67;;
40997;SDS011;26740;45.944;12.480;2024-02-26T01:43:54;2.97;;;2.25;;
40997;SDS011;26740;45.944;12.480;2024-02-26T01:46:19;3.88;;;2.85;;
40997;SDS011;26740;45.944;12.480;2024-02-26T01:48:45;23.38;;;3.30;;
40997;SDS011;26740;45.944;12.480;2024-02-26T01:51:12;2.72;;;1.95;;
40997;SDS011;26740;45.944;12.480;2024-02-26T01:53:40;3.30;;;3.00;;
40997;SDS011;26740;45.944;12.480;2024-02-26T01:56:07;2.00;;;1.80;;
40997;SDS011;26740;45.944;12.480;2024-02-26T01:58:33;3.17;;;2.50;;
40997;SDS011;26740;45.944;12.480;2024-02-26T02:01:00;37.38;;;3.58;;
40997;SDS011;26740;45.944;12.480;2024-02-26T02:03:27;16.83;;;2.25;;
40997;SDS011;26740;45.944;12.480;2024-02-26T02:05:53;3.97;;;2.40;;
40997;SDS011;26740;45.944;12.480;2024-02-26T02:08:19;2.60;;;2.40;;
40997;SDS011;26740;45.944;12.480;2024-02-26T02:10:45;3.00;;;2.25;;
40997;SDS011;26740;45.944;12.480;2024-02-26T02:13:13;2.13;;;1.52;;
40997;SDS011;26740;45.944;12.480;2024-02-26T02:15:39;2.65;;;1.83;;
40997;SDS011;26740;45.944;12.480;2024-02-26T02:18:05;2.00;;;1.70;;
40997;SDS011;26740;45.944;12.480;2024-02-26T02:20:31;3.28;;;2.22;;
40997;SDS011;26740;45.944;12.480;2024-02-26T02:22:58;2.45;;;1.75;;
40997;SDS011;26740;45.944;12.480;2024-02-26T02:25:24;3.17;;;2.45;;
40997;SDS011;26740;45.944;12.480;2024-02-26T02:27:50;2.28;;;1.95;;
40997;SDS011;26740;45.944;12.480;2024-02-26T02:30:17;2.35;;;1.92;;
40997;SDS011;26740;45.944;12.480;2024-02-26T02:32:42;4.22;;;1.90;;
40997;SDS011;26740;45.944;12.480;2024-02-26T02:35:09;3.25;;;2.78;;
40997;SDS011;26740;45.944;12.480;2024-02-26T02:37:35;4.05;;;2.55;;
40997;SDS011;26740;45.944;12.480;2024-02-26T02:40:02;3.67;;;2.13;;
40997;SDS011;26740;45.944;12.480;2024-02-26T02:42:28;1.77;;;1.42;;
40997;SDS011;26740;45.944;12.480;2024-02-26T02:44:53;2.05;;;1.85;;
40997;SDS011;26740;45.944;12.480;2024-02-26T02:47:19;5.43;;;2.20;;
40997;SDS011;26740;45.944;12.480;2024-02-26T02:49:44;9.25;;;1.58;;
40997;SDS011;26740;45.944;12.480;2024-02-26T02:52:10;4.85;;;2.05;;
40997;SDS011;26740;45.944;12.480;2024-02-26T02:54:36;1.50;;;1.40;;
40997;SDS011;26740;45.944;12.480;2024-02-26T02:57:05;10.93;;;2.60;;
40997;SDS011;26740;45.944;12.480;2024-02-26T02:59:31;2.80;;;1.75;;
40997;SDS011;26740;45.944;12.480;2024-02-26T03:01:56;2.83;;;1.92;;
40997;SDS011;26740;45.944;12.480;2024-02-26T03:04:22;2.20;;;2.08;;
40997;SDS011;26740;45.944;12.480;2024-02-26T03:06:48;1.95;;;1.63;;
40997;SDS011;26740;45.944;12.480;2024-02-26T03:09:13;2.95;;;2.50;;
40997;SDS011;26740;45.944;12.480;2024-02-26T03:11:39;3.30;;;2.58;;
40997;SDS011;26740;45.944;12.480;2024-02-26T03:14:05;2.53;;;2.00;;
40997;SDS011;26740;45.944;12.480;2024-02-26T03:16:31;1.92;;;1.70;;
40997;SDS011;26740;45.944;12.480;2024-02-26T03:18:57;2.53;;;1.90;;
40997;SDS011;26740;45.944;12.480;2024-02-26T03:21:24;2.97;;;2.60;;
40997;SDS011;26740;45.944;12.480;2024-02-26T03:23:50;6.30;;;2.80;;
40997;SDS011;26740;45.944;12.480;2024-02-26T03:26:16;3.05;;;2.22;;
40997;SDS011;26740;45.944;12.480;2024-02-26T03:28:42;2.55;;;1.75;;
40997;SDS011;26740;45.944;12.480;2024-02-26T03:31:07;3.55;;;2.63;;
40997;SDS011;26740;45.944;12.480;2024-02-26T03:33:34;4.10;;;2.28;;
40997;SDS011;26740;45.944;12.480;2024-02-26T03:35:59;2.80;;;2.20;;
40997;SDS011;26740;45.944;12.480;2024-02-26T03:38:25;2.35;;;2.08;;
40997;SDS011;26740;45.944;12.480;2024-02-26T03:40:51;2.58;;;1.95;;
40997;SDS011;26740;45.944;12.480;2024-02-26T03:43:16;2.25;;;1.90;;
40997;SDS011;26740;45.944;12.480;2024-02-26T03:45:42;3.25;;;1.60;;
40997;SDS011;26740;45.944;12.480;2024-02-26T03:48:07;2.22;;;1.52;;
40997;SDS011;26740;45.944;12.480;2024-02-26T03:50:33;2.03;;;1.52;;
40997;SDS011;26740;45.944;12.480;2024-02-26T03:52:59;2.45;;;1.80;;
40997;SDS011;26740;45.944;12.480;2024-02-26T03:55:25;1.33;;;1.23;;
40997;SDS011;26740;45.944;12.480;2024-02-26T03:57:51;2.60;;;1.00;;
40997;SDS011;26740;45.944;12.480;2024-02-26T04:00:17;2.05;;;1.45;;
40997;SDS011;26740;45.944;12.480;2024-02-26T04:02:43;1.77;;;1.20;;
40997;SDS011;26740;45.944;12.480;2024-02-26T04:05:09;3.38;;;1.23;;
40997;SDS011;26740;45.944;12.480;2024-02-26T04:07:35;1.38;;;1.27;;
40997;SDS011;26740;45.944;12.480;2024-02-26T04:10:01;3.05;;;1.25;;
40997;SDS011;26740;45.944;12.480;2024-02-26T04:12:30;2.65;;;1.05;;
40997;SDS011;26740;45.944;12.480;2024-02-26T04:14:55;1.98;;;1.33;;
40997;SDS011;26740;45.944;12.480;2024-02-26T04:17:21;1.80;;;1.02;;
40997;SDS011;26740;45.944;12.480;2024-02-26T04:19:46;1.58;;;0.90;;
40997;SDS011;26740;45.944;12.480;2024-02-26T04:22:12;2.92;;;1.60;;
40997;SDS011;26740;45.944;12.480;2024-02-26T04:24:38;1.15;;;1.02;;
40997;SDS011;26740;45.944;12.480;2024-02-26T04:27:03;1.60;;;0.90;;
40997;SDS011;26740;45.944;12.480;2024-02-26T04:29:29;1.42;;;0.80;;
40997;SDS011;26740;45.944;12.480;2024-02-26T04:31:54;3.95;;;0.80;;
40997;SDS011;26740;45.944;12.480;2024-02-26T04:34:20;4.07;;;1.00;;
40997;SDS011;26740;45.944;12.480;2024-02-26T04:36:45;2.63;;;0.70;;
40997;SDS011;26740;45.944;12.480;2024-02-26T04:39:13;0.73;;;0.70;;
40997;SDS011;26740;45.944;12.480;2024-02-26T04:41:38;1.88;;;0.55;;
40997;SDS011;26740;45.944;12.480;2024-02-26T04:44:05;0.88;;;0.60;;
40997;SDS011;26740;45.944;12.480;2024-02-26T04:46:30;0.88;;;0.68;;
40997;SDS011;26740;45.944;12.480;2024-02-26T04:48:56;0.55;;;0.55;;
40997;SDS011;26740;45.944;12.480;2024-02-26T04:51:22;4.13;;;0.77;;
40997;SDS011;26740;45.944;12.480;2024-02-26T04:53:47;0.50;;;0.43;;
40997;SDS011;26740;45.944;12.480;2024-02-26T04:56:13;0.90;;;0.88;;
40997;SDS011;26740;45.944;12.480;2024-02-26T04:58:38;0.70;;;0.70;;
40997;SDS011;26740;45.944;12.480;2024-02-26T05:01:04;1.10;;;1.00;;
40997;SDS011;26740;45.944;12.480;2024-02-26T05:03:30;1.02;;;0.90;;
40997;SDS011;26740;45.944;12.480;2024-02-26T05:05:56;2.58;;;1.02;;
40997;SDS011;26740;45.944;12.480;2024-02-26T05:08:23;2.03;;;1.05;;
40997;SDS011;26740;45.944;12.480;2024-02-26T05:10:49;1.33;;;1.15;;
40997;SDS011;26740;45.944;12.480;2024-02-26T05:13:14;2.05;;;1.20;;
40997;SDS011;26740;45.944;12.480;2024-02-26T05:15:43;1.63;;;1.35;;
40997;SDS011;26740;45.944;12.480;2024-02-26T05:18:09;2.05;;;1.00;;
40997;SDS011;26740;45.944;12.480;2024-02-26T05:20:34;3.65;;;1.48;;
40997;SDS011;26740;45.944;12.480;2024-02-26T05:23:01;2.00;;;1.23;;
40997;SDS011;26740;45.944;12.480;2024-02-26T05:25:27;2.20;;;1.55;;
40997;SDS011;26740;45.944;12.480;2024-02-26T05:27:52;1.73;;;1.02;;
40997;SDS011;26740;45.944;12.480;2024-02-26T05:30:18;0.85;;;0.85;;
40997;SDS011;26740;45.944;12.480;2024-02-26T05:32:43;1.30;;;0.85;;
40997;SDS011;26740;45.944;12.480;2024-02-26T05:35:09;4.00;;;0.95;;
40997;SDS011;26740;45.944;12.480;2024-02-26T05:37:34;3.83;;;1.10;;
40997;SDS011;26740;45.944;12.480;2024-02-26T05:40:00;1.15;;;0.88;;
40997;SDS011;26740;45.944;12.480;2024-02-26T05:42:25;2.38;;;0.77;;
40997;SDS011;26740;45.944;12.480;2024-02-26T05:44:51;1.35;;;0.70;;
40997;SDS011;26740;45.944;12.480;2024-02-26T05:47:16;1.17;;;1.00;;
40997;SDS011;26740;45.944;12.480;2024-02-26T05:49:43;0.88;;;0.73;;
40997;SDS011;26740;45.944;12.480;2024-02-26T05:52:09;1.05;;;0.80;;
40997;SDS011;26740;45.944;12.480;2024-02-26T05:54:34;1.58;;;1.42;;
40997;SDS011;26740;45.944;12.480;2024-02-26T05:57:00;1.20;;;1.10;;
40997;SDS011;26740;45.944;12.480;2024-02-26T05:59:26;1.30;;;1.15;;
40997;SDS011;26740;45.944;12.480;2024-02-26T06:01:52;2.83;;;2.03;;
40997;SDS011;26740;45.944;12.480;2024-02-26T06:04:17;2.50;;;1.63;;
40997;SDS011;26740;45.944;12.480;2024-02-26T06:06:46;1.60;;;0.98;;
40997;SDS011;26740;45.944;12.480;2024-02-26T06:09:11;1.65;;;1.23;;
40997;SDS011;26740;45.944;12.480;2024-02-26T06:11:37;1.13;;;1.00;;
40997;SDS011;26740;45.944;12.480;2024-02-26T06:14:03;2.05;;;1.20;;
40997;SDS011;26740;45.944;12.480;2024-02-26T06:16:28;1.73;;;1.10;;
40997;SDS011;26740;45.944;12.480;2024-02-26T06:18:54;1.42;;;1.33;;
40997;SDS011;26740;45.944;12.480;2024-02-26T06:21:20;2.45;;;1.75;;
40997;SDS011;26740;45.944;12.480;2024-02-26T06:23:45;6.22;;;2.60;;
40997;SDS011;26740;45.944;12.480;2024-02-26T06:26:11;4.18;;;3.30;;
40997;SDS011;26740;45.944;12.480;2024-02-26T06:28:36;5.00;;;3.17;;
40997;SDS011;26740;45.944;12.480;2024-02-26T06:31:05;4.57;;;2.55;;
40997;SDS011;26740;45.944;12.480;2024-02-26T06:33:31;3.05;;;1.88;;
40997;SDS011;26740;45.944;12.480;2024-02-26T06:35:57;1.73;;;1.50;;
40997;SDS011;26740;45.944;12.480;2024-02-26T06:38:23;1.48;;;1.33;;
40997;SDS011;26740;45.944;12.480;2024-02-26T06:40:48;3.22;;;1.60;;
40997;SDS011;26740;45.944;12.480;2024-02-26T06:43:14;2.47;;;1.42;;
40997;SDS011;26740;45.944;12.480;2024-02-26T06:45:39;2.13;;;1.75;;
40997;SDS011;26740;45.944;12.480;2024-02-26T06:48:05;1.60;;;0.95;;
40997;SDS011;26740;45.944;12.480;2024-02-26T06:50:31;1.48;;;1.10;;
40997;SDS011;26740;45.944;12.480;2024-02-26T06:52:57;2.22;;;1.55;;
40997;SDS011;26740;45.944;12.480;2024-02-26T06:55:22;4.50;;;1.90;;
40997;SDS011;26740;45.944;12.480;2024-02-26T06:57:48;2.47;;;1.85;;
40997;SDS011;26740;45.944;12.480;2024-02-26T07:00:14;3.15;;;1.67;;
40997;SDS011;26740;45.944;12.480;2024-02-26T07:02:41;3.10;;;1.98;;
40997;SDS011;26740;45.944;12.480;2024-02-26T07:05:07;2.55;;;2.17;;
40997;SDS011;26740;45.944;12.480;2024-02-26T07:07:33;1.58;;;1.40;;
40997;SDS011;26740;45.944;12.480;2024-02-26T07:09:59;4.32;;;1.27;;
40997;SDS011;26740;45.944;12.480;2024-02-26T07:12:25;3.92;;;1.58;;
40997;SDS011;26740;45.944;12.480;2024-02-26T07:14:51;4.25;;;1.77;;
40997;SDS011;26740;45.944;12.480;2024-02-26T07:17:17;5.13;;;1.98;;
40997;SDS011;26740;45.944;12.480;2024-02-26T07:19:43;2.20;;;1.77;;
40997;SDS011;26740;45.944;12.480;2024-02-26T07:22:08;3.88;;;2.45;;
40997;SDS011;26740;45.944;12.480;2024-02-26T07:24:34;4.78;;;2.58;;
40997;SDS011;26740;45.944;12.480;2024-02-26T07:26:59;4.40;;;2.30;;
40997;SDS011;26740;45.944;12.480;2024-02-26T07:29:25;2.78;;;2.05;;
40997;SDS011;26740;45.944;12.480;2024-02-26T07:31:51;3.13;;;2.08;;
40997;SDS011;26740;45.944;12.480;2024-02-26T07:34:16;4.95;;;1.35;;
40997;SDS011;26740;45.944;12.480;2024-02-26T07:36:42;2.08;;;1.30;;
40997;SDS011;26740;45.944;12.480;2024-02-26T07:39:08;5.22;;;2.08;;
40997;SDS011;26740;45.944;12.480;2024-02-26T07:41:33;3.47;;;1.50;;
40997;SDS011;26740;45.944;12.480;2024-02-26T07:43:59;4.80;;;1.00;;
40997;SDS011;26740;45.944;12.480;2024-02-26T07:46:25;4.85;;;1.67;;
40997;SDS011;26740;45.944;12.480;2024-02-26T07:48:50;3.53;;;2.05;;
40997;SDS011;26740;45.944;12.480;2024-02-26T07:51:16;2.58;;;1.67;;
40997;SDS011;26740;45.944;12.480;2024-02-26T07:53:42;2.67;;;2.03;;
40997;SDS011;26740;45.944;12.480;2024-02-26T07:56:08;4.78;;;2.80;;
40997;SDS011;26740;45.944;12.480;2024-02-26T07:58:34;3.08;;;2.05;;
40997;SDS011;26740;45.944;12.480;2024-02-26T08:01:00;2.17;;;1.58;;
40997;SDS011;26740;45.944;12.480;2024-02-26T08:03:26;2.30;;;1.48;;
40997;SDS011;26740;45.944;12.480;2024-02-26T08:05:52;3.75;;;0.93;;
40997;SDS011;26740;45.944;12.480;2024-02-26T08:08:18;2.72;;;0.77;;
40997;SDS011;26740;45.944;12.480;2024-02-26T08:10:43;1.65;;;0.80;;
40997;SDS011;26740;45.944;12.480;2024-02-26T08:13:09;0.98;;;0.60;;
40997;SDS011;26740;45.944;12.480;2024-02-26T08:15:35;1.35;;;0.60;;
40997;SDS011;26740;45.944;12.480;2024-02-26T08:18:04;3.33;;;1.38;;
40997;SDS011;26740;45.944;12.480;2024-02-26T08:20:30;1.95;;;0.73;;
40997;SDS011;26740;45.944;12.480;2024-02-26T08:22:56;5.40;;;1.20;;
40997;SDS011;26740;45.944;12.480;2024-02-26T08:25:22;4.35;;;1.48;;
40997;SDS011;26740;45.944;12.480;2024-02-26T08:27:49;1.48;;;1.35;;
40997;SDS011;26740;45.944;12.480;2024-02-26T08:30:15;0.88;;;0.77;;
40997;SDS011;26740;45.944;12.480;2024-02-26T08:32:45;2.97;;;1.15;;
40997;SDS011;26740;45.944;12.480;2024-02-26T08:37:38;1.65;;;1.25;;
40997;SDS011;26740;45.944;12.480;2024-02-26T08:40:04;1.63;;;0.90;;
40997;SDS011;26740;45.944;12.480;2024-02-26T08:42:31;3.25;;;1.17;;
40997;SDS011;26740;45.944;12.480;2024-02-26T08:44:56;1.63;;;1.10;;
40997;SDS011;26740;45.944;12.480;2024-02-26T08:47:25;3.17;;;0.93;;
40997;SDS011;26740;45.944;12.480;2024-02-26T08:49:51;2.80;;;1.27;;
40997;SDS011;26740;45.944;12.480;2024-02-26T08:52:16;5.55;;;1.05;;
40997;SDS011;26740;45.944;12.480;2024-02-26T08:54:42;1.08;;;0.82;;
40997;SDS011;26740;45.944;12.480;2024-02-26T08:57:08;1.40;;;0.93;;
40997;SDS011;26740;45.944;12.480;2024-02-26T08:59:33;1.40;;;1.25;;
40997;SDS011;26740;45.944;12.480;2024-02-26T09:01:59;4.30;;;0.80;;
40997;SDS011;26740;45.944;12.480;2024-02-26T09:04:25;3.33;;;0.70;;
40997;SDS011;26740;45.944;12.480;2024-02-26T09:06:52;3.60;;;0.82;;
40997;SDS011;26740;45.944;12.480;2024-02-26T09:09:19;3.20;;;0.80;;
40997;SDS011;26740;45.944;12.480;2024-02-26T09:11:45;2.30;;;0.85;;
40997;SDS011;26740;45.944;12.480;2024-02-26T09:14:11;7.45;;;1.20;;
40997;SDS011;26740;45.944;12.480;2024-02-26T09:16:37;1.88;;;0.82;;
40997;SDS011;26740;45.944;12.480;2024-02-26T09:19:03;3.03;;;1.23;;
40997;SDS011;26740;45.944;12.480;2024-02-26T09:21:28;2.50;;;0.93;;
40997;SDS011;26740;45.944;12.480;2024-02-26T09:23:54;1.90;;;0.95;;
40997;SDS011;26740;45.944;12.480;2024-02-26T09:26:20;3.28;;;0.77;;
40997;SDS011;26740;45.944;12.480;2024-02-26T09:28:45;1.50;;;1.10;;
40997;SDS011;26740;45.944;12.480;2024-02-26T09:31:11;1.20;;;0.80;;
40997;SDS011;26740;45.944;12.480;2024-02-26T09:33:37;3.92;;;1.08;;
40997;SDS011;26740;45.944;12.480;2024-02-26T09:36:03;3.80;;;0.77;;
40997;SDS011;26740;45.944;12.480;2024-02-26T09:38:29;1.40;;;0.60;;
40997;SDS011;26740;45.944;12.480;2024-02-26T09:40:58;10.23;;;1.48;;
40997;SDS011;26740;45.944;12.480;2024-02-26T09:43:24;2.35;;;1.00;;
40997;SDS011;26740;45.944;12.480;2024-02-26T09:45:59;2.45;;;0.90;;
40997;SDS011;26740;45.944;12.480;2024-02-26T09:48:25;4.57;;;1.30;;
40997;SDS011;26740;45.944;12.480;2024-02-26T09:50:51;5.18;;;1.00;;
40997;SDS011;26740;45.944;12.480;2024-02-26T09:53:17;3.13;;;0.95;;
40997;SDS011;26740;45.944;12.480;2024-02-26T09:55:47;4.23;;;1.20;;
40997;SDS011;26740;45.944;12.480;2024-02-26T09:58:12;3.88;;;1.30;;
40997;SDS011;26740;45.944;12.480;2024-02-26T10:00:43;5.00;;;1.23;;
40997;SDS011;26740;45.944;12.480;2024-02-26T10:03:15;2.42;;;0.82;;
40997;SDS011;26740;45.944;12.480;2024-02-26T10:05:43;3.33;;;1.10;;
40997;SDS011;26740;45.944;12.480;2024-02-26T10:08:10;0.93;;;0.77;;
40997;SDS011;26740;45.944;12.480;2024-02-26T10:10:37;1.67;;;0.60;;
40997;SDS011;26740;45.944;12.480;2024-02-26T10:13:04;1.85;;;0.75;;
40997;SDS011;26740;45.944;12.480;2024-02-26T10:15:35;1.92;;;0.90;;
40997;SDS011;26740;45.944;12.480;2024-02-26T10:18:05;0.98;;;0.70;;
40997;SDS011;26740;45.944;12.480;2024-02-26T10:20:31;1.05;;;0.75;;
40997;SDS011;26740;45.944;12.480;2024-02-26T10:22:57;3.05;;;2.05;;
40997;SDS011;26740;45.944;12.480;2024-02-26T10:25:23;2.47;;;0.88;;
40997;SDS011;26740;45.944;12.480;2024-02-26T10:27:49;1.55;;;0.80;;
40997;SDS011;26740;45.944;12.480;2024-02-26T10:30:21;3.38;;;1.10;;
40997;SDS011;26740;45.944;12.480;2024-02-26T10:32:48;4.15;;;1.40;;
40997;SDS011;26740;45.944;12.480;2024-02-26T10:35:14;2.53;;;1.45;;
40997;SDS011;26740;45.944;12.480;2024-02-26T10:37:42;1.80;;;1.40;;
40997;SDS011;26740;45.944;12.480;2024-02-26T10:40:12;1.15;;;0.80;;
40997;SDS011;26740;45.944;12.480;2024-02-26T10:42:38;2.38;;;1.58;;
40997;SDS011;26740;45.944;12.480;2024-02-26T10:45:05;2.90;;;1.40;;
40997;SDS011;26740;45.944;12.480;2024-02-26T10:47:31;4.10;;;1.63;;
40997;SDS011;26740;45.944;12.480;2024-02-26T10:49:59;2.35;;;1.38;;
40997;SDS011;26740;45.944;12.480;2024-02-26T10:52:26;3.28;;;1.33;;
40997;SDS011;26740;45.944;12.480;2024-02-26T10:54:55;2.97;;;1.23;;
40997;SDS011;26740;45.944;12.480;2024-02-26T10:57:25;3.72;;;1.10;;
40997;SDS011;26740;45.944;12.480;2024-02-26T10:59:52;4.32;;;1.38;;
40997;SDS011;26740;45.944;12.480;2024-02-26T11:02:19;2.75;;;1.33;;
40997;SDS011;26740;45.944;12.480;2024-02-26T11:04:46;4.05;;;1.10;;
40997;SDS011;26740;45.944;12.480;2024-02-26T11:07:12;3.25;;;1.15;;
40997;SDS011;26740;45.944;12.480;2024-02-26T11:09:38;2.25;;;0.90;;
40997;SDS011;26740;45.944;12.480;2024-02-26T11:12:10;2.25;;;0.82;;
40997;SDS011;26740;45.944;12.480;2024-02-26T11:14:38;2.40;;;0.80;;
40997;SDS011;26740;45.944;12.480;2024-02-26T11:17:07;2.33;;;1.05;;
40997;SDS011;26740;45.944;12.480;2024-02-26T11:19:34;1.80;;;1.15;;
40997;SDS011;26740;45.944;12.480;2024-02-26T11:22:01;4.85;;;1.08;;
40997;SDS011;26740;45.944;12.480;2024-02-26T11:24:27;2.78;;;1.17;;
40997;SDS011;26740;45.944;12.480;2024-02-26T11:26:54;3.83;;;1.38;;
40997;SDS011;26740;45.944;12.480;2024-02-26T11:29:25;1.75;;;0.77;;
40997;SDS011;26740;45.944;12.480;2024-02-26T11:31:53;2.30;;;1.37;;
40997;SDS011;26740;45.944;12.480;2024-02-26T11:34:19;2.28;;;0.93;;
40997;SDS011;26740;45.944;12.480;2024-02-26T11:36:46;2.28;;;1.17;;
40997;SDS011;26740;45.944;12.480;2024-02-26T11:39:12;5.63;;;1.08;;
40997;SDS011;26740;45.944;12.480;2024-02-26T11:41:40;2.60;;;1.33;;
40997;SDS011;26740;45.944;12.480;2024-02-26T11:44:05;2.33;;;1.63;;
40997;SDS011;26740;45.944;12.480;2024-02-26T11:46:32;3.78;;;1.50;;
40997;SDS011;26740;45.944;12.480;2024-02-26T11:49:29;4.22;;;1.35;;
40997;SDS011;26740;45.944;12.480;2024-02-26T11:51:52;4.70;;;1.65;;
40997;SDS011;26740;45.944;12.480;2024-02-26T11:54:44;2.95;;;1.35;;
40997;SDS011;26740;45.944;12.480;2024-02-26T11:57:27;3.38;;;1.48;;
40997;SDS011;26740;45.944;12.480;2024-02-26T11:59:54;2.97;;;1.00;;
40997;SDS011;26740;45.944;12.480;2024-02-26T12:07:49;2.90;;;1.30;;
40997;SDS011;26740;45.944;12.480;2024-02-26T12:10:23;6.18;;;1.65;;
40997;SDS011;26740;45.944;12.480;2024-02-26T12:13:00;4.55;;;1.60;;
40997;SDS011;26740;45.944;12.480;2024-02-26T12:15:31;2.03;;;1.30;;
40997;SDS011;26740;45.944;12.480;2024-02-26T12:18:02;4.40;;;2.15;;
40997;SDS011;26740;45.944;12.480;2024-02-26T12:20:29;3.10;;;1.15;;
40997;SDS011;26740;45.944;12.480;2024-02-26T12:22:55;2.85;;;0.90;;
40997;SDS011;26740;45.944;12.480;2024-02-26T12:25:23;3.65;;;1.45;;
40997;SDS011;26740;45.944;12.480;2024-02-26T12:27:51;2.58;;;1.48;;
40997;SDS011;26740;45.944;12.480;2024-02-26T12:30:18;4.80;;;1.00;;
40997;SDS011;26740;45.944;12.480;2024-02-26T12:32:44;1.75;;;0.70;;
40997;SDS011;26740;45.944;12.480;2024-02-26T12:35:12;1.30;;;0.63;;
40997;SDS011;26740;45.944;12.480;2024-02-26T12:37:38;3.35;;;0.70;;
40997;SDS011;26740;45.944;12.480;2024-02-26T12:40:05;1.45;;;0.75;;
40997;SDS011;26740;45.944;12.480;2024-02-26T12:42:34;2.17;;;1.00;;
40997;SDS011;26740;45.944;12.480;2024-02-26T12:45:09;5.68;;;1.10;;
40997;SDS011;26740;45.944;12.480;2024-02-26T12:47:40;4.20;;;1.15;;
40997;SDS011;26740;45.944;12.480;2024-02-26T12:50:09;2.78;;;0.50;;
40997;SDS011;26740;45.944;12.480;2024-02-26T12:52:45;2.80;;;1.15;;
40997;SDS011;26740;45.944;12.480;2024-02-26T12:55:15;2.10;;;0.70;;
40997;SDS011;26740;45.944;12.480;2024-02-26T12:57:43;3.42;;;1.42;;
40997;SDS011;26740;45.944;12.480;2024-02-26T13:00:11;1.95;;;0.52;;
40997;SDS011;26740;45.944;12.480;2024-02-26T13:02:39;1.10;;;0.50;;
40997;SDS011;26740;45.944;12.480;2024-02-26T13:05:08;2.60;;;0.50;;
40997;SDS011;26740;45.944;12.480;2024-02-26T13:07:34;2.03;;;0.50;;
40997;SDS011;26740;45.944;12.480;2024-02-26T13:10:06;2.55;;;0.65;;
40997;SDS011;26740;45.944;12.480;2024-02-26T13:12:33;3.47;;;0.88;;
40997;SDS011;26740;45.944;12.480;2024-02-26T13:14:59;2.10;;;0.70;;
40997;SDS011;26740;45.944;12.480;2024-02-26T13:17:25;2.45;;;0.50;;
40997;SDS011;26740;45.944;12.480;2024-02-26T13:19:53;1.73;;;0.50;;
40997;SDS011;26740;45.944;12.480;2024-02-26T13:22:30;1.40;;;0.57;;
40997;SDS011;26740;45.944;12.480;2024-02-26T13:24:59;2.30;;;0.60;;
40997;SDS011;26740;45.944;12.480;2024-02-26T13:27:25;1.05;;;0.47;;
40997;SDS011;26740;45.944;12.480;2024-02-26T13:30:10;1.33;;;0.40;;
40997;SDS011;26740;45.944;12.480;2024-02-26T13:32:37;3.78;;;0.47;;
40997;SDS011;26740;45.944;12.480;2024-02-26T13:35:04;3.13;;;1.05;;
40997;SDS011;26740;45.944;12.480;2024-02-26T13:37:34;7.40;;;1.27;;
40997;SDS011;26740;45.944;12.480;2024-02-26T13:40:00;1.42;;;0.50;;
40997;SDS011;26740;45.944;12.480;2024-02-26T13:42:33;1.65;;;0.68;;
40997;SDS011;26740;45.944;12.480;2024-02-26T13:45:00;1.90;;;0.60;;
40997;SDS011;26740;45.944;12.480;2024-02-26T13:47:25;0.75;;;0.40;;
40997;SDS011;26740;45.944;12.480;2024-02-26T13:49:51;0.75;;;0.30;;
40997;SDS011;26740;45.944;12.480;2024-02-26T13:52:17;1.75;;;0.70;;
40997;SDS011;26740;45.944;12.480;2024-02-26T13:54:45;2.55;;;0.50;;
40997;SDS011;26740;45.944;12.480;2024-02-26T13:57:11;1.58;;;0.40;;
40997;SDS011;26740;45.944;12.480;2024-02-26T13:59:37;3.90;;;0.63;;
40997;SDS011;26740;45.944;12.480;2024-02-26T14:02:06;2.23;;;0.40;;
40997;SDS011;26740;45.944;12.480;2024-02-26T14:04:32;6.85;;;1.02;;
40997;SDS011;26740;45.944;12.480;2024-02-26T14:06:58;2.63;;;0.90;;
40997;SDS011;26740;45.944;12.480;2024-02-26T14:09:23;1.98;;;0.85;;
40997;SDS011;26740;45.944;12.480;2024-02-26T14:11:49;3.15;;;0.63;;
40997;SDS011;26740;45.944;12.480;2024-02-26T14:14:14;1.98;;;0.80;;
40997;SDS011;26740;45.944;12.480;2024-02-26T14:16:40;1.50;;;0.80;;
40997;SDS011;26740;45.944;12.480;2024-02-26T14:19:06;7.45;;;0.50;;
40997;SDS011;26740;45.944;12.480;2024-02-26T14:21:31;2.67;;;0.75;;
40997;SDS011;26740;45.944;12.480;2024-02-26T14:23:57;1.90;;;0.47;;
40997;SDS011;26740;45.944;12.480;2024-02-26T14:26:23;2.33;;;0.80;;
40997;SDS011;26740;45.944;12.480;2024-02-26T14:28:48;3.53;;;0.80;;
40997;SDS011;26740;45.944;12.480;2024-02-26T14:31:17;4.50;;;1.10;;
40997;SDS011;26740;45.944;12.480;2024-02-26T14:33:43;1.98;;;0.90;;
40997;SDS011;26740;45.944;12.480;2024-02-26T14:36:09;6.00;;;2.55;;
40997;SDS011;26740;45.944;12.480;2024-02-26T14:38:35;2.95;;;1.00;;